Time;durP1;ratioP1;P1;durP2;ratioP2;P2;SDS_P1;SDS_P2;PMS_P1;PMS_P2;Temp;Humidity;BMP_temperature;BMP_pressure;BME280_temperature;BME280_humidity;BME280_pressure;Samples;Min_cycle;Max_cycle;Signal;HPM_P1;HPM_P2
2022/07/11 00:01:23;;;;;;;6.60;4.13;;;15.80;99.90;;;;;;5096687;28;20032;-76
2022/07/11 00:03:51;;;;;;;7.30;3.83;;;15.70;99.90;;;;;;5100282;28;20096;-78
2022/07/11 00:06:18;;;;;;;5.13;3.60;;;15.70;99.90;;;;;;5100537;28;20487;-76
2022/07/11 00:08:45;;;;;;;8.15;4.10;;;15.70;99.90;;;;;;5084634;28;20036;-75
2022/07/11 00:11:13;;;;;;;7.20;3.80;;;15.60;99.90;;;;;;5084959;28;20116;-76
2022/07/11 00:13:40;;;;;;;7.47;4.60;;;15.50;99.90;;;;;;5091913;28;20160;-75
2022/07/11 00:16:09;;;;;;;6.25;3.90;;;15.50;99.90;;;;;;5100872;28;20051;-75
2022/07/11 00:18:36;;;;;;;8.50;3.80;;;15.50;99.90;;;;;;5115629;28;20043;-75
2022/07/11 00:21:04;;;;;;;6.28;3.90;;;15.50;99.90;;;;;;5100005;28;20039;-77
2022/07/11 00:23:31;;;;;;;6.90;4.00;;;15.60;99.90;;;;;;5118271;28;20387;-76
2022/07/11 00:25:58;;;;;;;6.03;3.90;;;15.60;99.90;;;;;;5118239;28;20048;-75
2022/07/11 00:28:26;;;;;;;7.88;4.38;;;15.70;99.90;;;;;;5105693;28;20494;-76
2022/07/11 00:30:53;;;;;;;6.75;4.05;;;15.70;99.90;;;;;;5097263;28;20119;-76
2022/07/11 00:33:22;;;;;;;7.07;3.47;;;15.70;99.90;;;;;;5097401;28;20043;-78
2022/07/11 00:35:49;;;;;;;7.25;3.25;;;15.60;99.90;;;;;;5097525;28;20491;-76
2022/07/11 00:38:17;;;;;;;6.70;4.07;;;15.60;99.90;;;;;;5079338;28;20063;-75
2022/07/11 00:40:44;;;;;;;6.85;3.80;;;15.60;99.90;;;;;;5111881;28;20452;-76
2022/07/11 00:43:12;;;;;;;6.95;3.90;;;15.60;99.90;;;;;;5107038;28;20061;-76
2022/07/11 00:45:39;;;;;;;6.70;4.13;;;15.50;99.90;;;;;;5142474;28;20029;-77
2022/07/11 00:48:07;;;;;;;6.75;4.00;;;15.50;99.90;;;;;;5141971;28;20024;-75
2022/07/11 00:50:36;;;;;;;8.15;4.03;;;15.40;99.90;;;;;;5121412;28;20161;-76
2022/07/11 00:53:03;;;;;;;6.85;3.75;;;15.40;99.90;;;;;;5117632;28;20051;-75
2022/07/11 00:55:31;;;;;;;6.28;4.15;;;15.40;99.90;;;;;;5118618;28;20043;-76
2022/07/11 00:57:58;;;;;;;7.13;4.30;;;15.50;99.90;;;;;;5100423;28;20054;-75
2022/07/11 01:00:26;;;;;;;6.63;4.03;;;15.40;99.90;;;;;;5117703;28;20130;-76
2022/07/11 01:02:53;;;;;;;12.65;4.75;;;15.40;99.90;;;;;;5117384;28;20039;-76
2022/07/11 01:05:20;;;;;;;6.53;3.85;;;15.40;99.90;;;;;;5098971;28;20113;-75
2022/07/11 01:07:49;;;;;;;7.38;3.88;;;15.40;99.90;;;;;;5109862;28;20040;-75
2022/07/11 01:10:17;;;;;;;7.68;4.13;;;15.40;99.90;;;;;;5078276;28;20070;-76
2022/07/11 01:12:44;;;;;;;7.78;4.43;;;15.40;99.90;;;;;;5096952;28;20047;-75
2022/07/11 01:15:15;;;;;;;9.40;4.63;;;15.50;99.90;;;;;;5110049;28;20044;-77
2022/07/11 01:17:43;;;;;;;10.57;5.15;;;15.50;99.90;;;;;;5088527;28;20052;-76
2022/07/11 01:20:11;;;;;;;13.65;4.47;;;15.40;99.90;;;;;;5078865;28;20048;-77
2022/07/11 01:22:44;;;;;;;9.75;4.68;;;15.50;99.90;;;;;;5084797;28;20383;-77
2022/07/11 01:25:29;;;;;;;10.13;4.63;;;15.40;99.90;;;;;;5116758;28;20447;-76
2022/07/11 01:27:57;;;;;;;8.07;4.90;;;15.50;99.90;;;;;;5118446;28;20409;-76
2022/07/11 01:30:25;;;;;;;7.90;4.13;;;15.40;99.90;;;;;;5117369;28;20374;-76
2022/07/11 01:32:53;;;;;;;6.78;4.20;;;15.40;99.90;;;;;;5098030;28;20044;-76
2022/07/11 01:35:20;;;;;;;9.88;3.92;;;15.40;99.90;;;;;;5098754;28;20046;-76
2022/07/11 01:37:48;;;;;;;9.40;4.35;;;15.50;99.90;;;;;;5096233;28;20071;-76
2022/07/11 01:40:17;;;;;;;13.43;5.20;;;15.50;99.90;;;;;;5077701;28;20060;-76
2022/07/11 01:42:44;;;;;;;16.80;6.18;;;15.60;99.90;;;;;;5093466;28;20498;-75
2022/07/11 01:45:12;;;;;;;10.70;5.50;;;15.60;99.90;;;;;;5116908;28;20047;-75
2022/07/11 01:47:40;;;;;;;10.82;4.85;;;15.60;99.90;;;;;;5117981;28;20040;-76
2022/07/11 01:50:08;;;;;;;16.38;7.15;;;15.60;99.90;;;;;;5099540;28;20050;-76
2022/07/11 01:52:35;;;;;;;16.63;6.95;;;15.70;99.90;;;;;;5116771;28;20036;-75
2022/07/11 01:55:03;;;;;;;12.43;6.30;;;15.70;99.90;;;;;;5105864;28;20040;-75
2022/07/11 01:57:31;;;;;;;13.18;6.30;;;15.70;99.90;;;;;;5097134;28;20050;-76
2022/07/11 01:59:59;;;;;;;9.73;5.30;;;15.70;99.90;;;;;;5096464;28;20441;-77
2022/07/11 02:02:26;;;;;;;14.98;6.35;;;15.70;99.90;;;;;;5082497;28;20076;-77
2022/07/11 02:04:53;;;;;;;11.48;5.40;;;15.70;99.90;;;;;;5097822;28;20089;-78
2022/07/11 02:08:11;;;;;;;12.65;6.03;;;15.70;99.90;;;;;;5097547;28;20104;-76
2022/07/11 02:10:09;;;;;;;53.63;34.05;;;15.70;99.90;;;;;;5085704;28;20044;-76
2022/07/11 02:12:38;;;;;;;18.23;9.35;;;15.80;99.90;;;;;;5098399;28;20043;-77
2022/07/11 02:15:06;;;;;;;18.65;9.18;;;15.80;99.90;;;;;;5099312;28;20463;-78
2022/07/11 02:17:34;;;;;;;20.50;10.27;;;15.80;99.90;;;;;;5116955;28;20126;-77
2022/07/11 02:20:01;;;;;;;20.42;10.32;;;15.90;99.90;;;;;;5098329;28;20048;-76
2022/07/11 02:22:29;;;;;;;27.90;11.70;;;15.90;99.90;;;;;;5097732;28;20394;-77
2022/07/11 02:24:57;;;;;;;24.40;13.10;;;16.00;99.90;;;;;;5100704;28;20040;-77
2022/07/11 02:27:24;;;;;;;26.38;11.85;;;16.00;99.90;;;;;;5094127;28;20575;-76
2022/07/11 02:29:53;;;;;;;24.90;12.18;;;16.00;99.90;;;;;;5094062;28;20048;-76
2022/07/11 02:32:20;;;;;;;28.60;13.10;;;16.00;99.90;;;;;;5108441;28;20479;-77
2022/07/11 02:34:47;;;;;;;32.00;12.68;;;16.00;99.90;;;;;;5097609;28;20048;-77
2022/07/11 02:37:15;;;;;;;23.75;11.50;;;16.00;99.90;;;;;;5097649;28;20490;-77
2022/07/11 02:39:43;;;;;;;21.55;11.02;;;16.00;99.90;;;;;;5109318;28;20040;-77
2022/07/11 02:42:11;;;;;;;21.63;9.95;;;16.00;99.90;;;;;;5076360;28;20052;-76
2022/07/11 02:44:38;;;;;;;22.58;10.65;;;16.00;99.90;;;;;;5076937;28;20048;-76
2022/07/11 02:47:07;;;;;;;19.25;9.82;;;15.90;99.90;;;;;;5076523;28;20098;-76
2022/07/11 02:49:34;;;;;;;17.48;8.55;;;15.90;99.90;;;;;;5094522;28;20494;-76
2022/07/11 02:52:01;;;;;;;18.15;8.88;;;15.80;99.90;;;;;;5094700;28;20044;-76
2022/07/11 02:54:29;;;;;;;18.05;8.57;;;15.80;99.90;;;;;;5100282;28;20495;-77
2022/07/11 02:56:57;;;;;;;19.05;8.60;;;15.70;99.90;;;;;;5114738;28;20558;-76
2022/07/11 02:59:24;;;;;;;15.60;7.38;;;15.70;99.90;;;;;;5095911;28;20070;-76
2022/07/11 03:01:51;;;;;;;14.90;6.93;;;15.60;99.90;;;;;;5094497;28;20048;-77
2022/07/11 03:04:20;;;;;;;13.73;7.00;;;15.50;99.90;;;;;;5079328;28;20071;-75
2022/07/11 03:06:47;;;;;;;20.48;7.18;;;15.50;99.90;;;;;;5115349;28;20047;-76
2022/07/11 03:09:15;;;;;;;27.30;9.32;;;15.40;99.90;;;;;;5103648;28;20048;-76
2022/07/11 03:11:42;;;;;;;12.73;7.22;;;15.30;99.90;;;;;;5101912;27;20089;-78
2022/07/11 03:14:32;;;;;;;17.15;7.43;;;15.30;99.90;;;;;;5117621;28;20071;-78
2022/07/11 03:17:00;;;;;;;20.05;9.10;;;15.20;99.90;;;;;;5113178;28;20040;-77
2022/07/11 03:19:29;;;;;;;21.42;9.68;;;15.10;99.90;;;;;;5104595;28;20398;-77
2022/07/11 03:21:56;;;;;;;16.67;8.70;;;15.00;99.90;;;;;;5095383;28;20043;-78
2022/07/11 03:24:23;;;;;;;20.65;8.63;;;14.90;99.90;;;;;;5093976;28;20367;-77
2022/07/11 03:26:51;;;;;;;23.67;11.18;;;15.00;99.90;;;;;;5095077;28;20122;-78
2022/07/11 03:29:18;;;;;;;20.35;10.00;;;14.90;99.90;;;;;;5095505;28;20048;-78
2022/07/11 03:31:45;;;;;;;22.27;11.40;;;14.90;99.90;;;;;;5095430;28;20036;-77
2022/07/11 03:34:12;;;;;;;21.55;10.82;;;14.90;99.90;;;;;;5094621;28;20097;-78
2022/07/11 03:36:41;;;;;;;21.92;10.75;;;14.90;99.90;;;;;;5075803;28;20059;-78
2022/07/11 03:39:08;;;;;;;24.85;10.48;;;14.90;99.90;;;;;;5098790;28;20035;-78
2022/07/11 03:41:36;;;;;;;24.05;10.48;;;14.80;99.90;;;;;;5099071;22;20051;-70
2022/07/11 03:44:03;;;;;;;23.10;10.70;;;14.80;99.90;;;;;;5118212;28;20086;-70
2022/07/11 03:46:30;;;;;;;21.50;10.27;;;14.70;99.90;;;;;;5105376;28;20042;-70
2022/07/11 03:48:58;;;;;;;23.05;10.80;;;14.70;99.90;;;;;;5087827;28;20093;-70
2022/07/11 03:51:25;;;;;;;18.23;9.13;;;14.70;99.90;;;;;;5101193;28;20087;-70
2022/07/11 03:53:54;;;;;;;27.63;9.68;;;14.70;99.90;;;;;;5094776;28;20458;-71
2022/07/11 03:56:22;;;;;;;20.80;8.85;;;14.70;99.90;;;;;;5105129;28;20040;-70
2022/07/11 03:58:49;;;;;;;24.10;9.55;;;14.80;99.90;;;;;;5105949;28;20040;-71
2022/07/11 04:01:17;;;;;;;19.27;9.10;;;15.00;99.90;;;;;;5098350;28;20044;-71
2022/07/11 04:03:44;;;;;;;14.15;8.68;;;16.00;99.90;;;;;;5103505;28;20044;-70
2022/07/11 04:06:11;;;;;;;16.63;8.10;;;17.30;99.90;;;;;;5097274;28;20040;-71
2022/07/11 04:08:39;;;;;;;16.60;7.70;;;18.50;99.90;;;;;;5097113;28;20479;-71
2022/07/11 04:11:08;;;;;;;29.25;8.57;;;19.30;99.90;;;;;;5089208;28;20065;-71
2022/07/11 04:13:36;;;;;;;25.83;8.63;;;19.80;99.90;;;;;;5112607;28;20051;-70
2022/07/11 04:16:03;;;;;;;16.75;8.25;;;20.70;99.90;;;;;;5117505;28;20036;-70
2022/07/11 04:18:30;;;;;;;16.65;8.25;;;21.60;99.90;;;;;;5075543;28;20028;-71
2022/07/11 04:20:57;;;;;;;30.90;10.00;;;22.70;99.90;;;;;;5105301;28;20055;-71
2022/07/11 04:23:25;;;;;;;15.05;8.07;;;23.20;99.90;;;;;;5096558;28;20062;-70
2022/07/11 04:25:52;;;;;;;21.52;8.50;;;23.80;99.90;;;;;;5113136;28;20060;-70
2022/07/11 04:28:20;;;;;;;14.70;7.70;;;24.30;99.90;;;;;;5099445;28;20071;-70
2022/07/11 04:30:48;;;;;;;17.20;7.95;;;24.70;99.90;;;;;;5097083;28;20040;-70
2022/07/11 04:33:15;;;;;;;19.08;7.80;;;25.30;99.90;;;;;;5097149;28;20478;-70
2022/07/11 04:35:43;;;;;;;13.80;7.57;;;25.80;99.90;;;;;;5086804;28;20142;-70
2022/07/11 04:38:10;;;;;;;15.90;7.90;;;26.00;99.90;;;;;;5081086;28;20044;-70
2022/07/11 04:40:37;;;;;;;15.07;7.47;;;26.10;99.90;;;;;;5095477;28;20101;-70
2022/07/11 04:43:05;;;;;;;15.48;6.97;;;26.70;99.90;;;;;;5081138;28;20036;-70
2022/07/11 04:45:34;;;;;;;12.63;6.82;;;26.60;99.90;;;;;;5092102;28;20036;-70
2022/07/11 04:48:02;;;;;;;12.82;6.68;;;26.50;99.90;;;;;;5104676;28;20469;-71
2022/07/11 04:50:30;;;;;;;11.70;6.38;;;27.10;99.90;;;;;;5095689;28;20355;-71
2022/07/11 04:52:57;;;;;;;13.52;7.03;;;27.30;99.90;;;;;;5077768;28;20044;-70
2022/07/11 04:55:24;;;;;;;16.60;7.80;;;27.10;99.70;;;;;;5096628;28;20467;-70
2022/07/11 04:57:52;;;;;;;14.65;8.15;;;26.80;99.90;;;;;;5091660;28;20043;-71
2022/07/11 05:00:20;;;;;;;12.25;7.72;;;26.60;99.90;;;;;;5096086;28;20048;-72
2022/07/11 05:02:48;;;;;;;14.75;7.72;;;26.70;99.90;;;;;;5096094;28;20476;-70
2022/07/11 05:05:16;;;;;;;13.43;8.82;;;26.90;99.90;;;;;;5093742;28;20048;-72
2022/07/11 05:07:43;;;;;;;11.35;7.63;;;27.00;99.90;;;;;;5078636;28;20052;-70
2022/07/11 05:10:10;;;;;;;12.68;6.55;;;27.70;99.10;;;;;;5076177;28;20065;-70
2022/07/11 05:12:38;;;;;;;11.82;6.65;;;27.70;98.50;;;;;;5075021;28;20040;-71
2022/07/11 05:15:06;;;;;;;14.00;7.05;;;28.40;95.70;;;;;;5075816;28;20051;-70
2022/07/11 05:17:33;;;;;;;9.93;5.55;;;28.10;95.90;;;;;;5082431;28;20044;-71
2022/07/11 05:20:02;;;;;;;10.93;6.70;;;28.30;94.40;;;;;;5076217;28;20127;-71
2022/07/11 05:22:29;;;;;;;9.10;4.35;;;28.10;93.80;;;;;;5081820;28;20083;-70
2022/07/11 05:24:56;;;;;;;10.65;5.55;;;28.20;91.40;;;;;;5077472;28;20333;-71
2022/07/11 05:27:24;;;;;;;5.97;3.75;;;28.50;90.90;;;;;;5085557;28;20438;-70
2022/07/11 05:29:51;;;;;;;10.38;7.05;;;28.60;83.40;;;;;;5095749;28;20032;-70
2022/07/11 05:32:18;;;;;;;13.18;5.47;;;28.50;82.90;;;;;;5079932;28;20035;-71
2022/07/11 05:34:45;;;;;;;12.15;4.55;;;28.20;82.30;;;;;;5094336;28;20105;-71
2022/07/11 05:37:14;;;;;;;17.95;4.20;;;28.00;81.70;;;;;;5078993;28;20451;-69
2022/07/11 05:39:41;;;;;;;6.53;3.47;;;28.10;82.30;;;;;;5086263;28;20044;-71
2022/07/11 05:42:09;;;;;;;7.72;5.03;;;28.50;80.00;;;;;;5073985;28;20068;-70
2022/07/11 05:44:37;;;;;;;7.28;3.90;;;28.90;78.30;;;;;;5072586;28;20051;-71
2022/07/11 05:47:05;;;;;;;10.60;3.78;;;29.00;75.50;;;;;;5054502;28;20068;-70
2022/07/11 05:49:33;;;;;;;8.40;3.00;;;28.50;75.70;;;;;;5072721;28;20094;-70
2022/07/11 05:52:00;;;;;;;8.20;4.47;;;28.50;75.60;;;;;;5059865;28;20040;-70
2022/07/11 05:54:29;;;;;;;4.28;2.15;;;28.20;70.30;;;;;;5088809;28;20386;-70
2022/07/11 05:56:56;;;;;;;3.63;2.38;;;27.00;66.90;;;;;;5081012;28;20043;-71
2022/07/11 05:59:23;;;;;;;6.43;2.53;;;26.40;67.60;;;;;;5090213;28;20158;-71
2022/07/11 06:01:51;;;;;;;5.13;2.22;;;26.10;69.20;;;;;;5076061;28;20044;-70
2022/07/11 06:04:18;;;;;;;8.63;3.50;;;26.00;69.70;;;;;;5081470;28;20040;-72
2022/07/11 06:06:46;;;;;;;4.90;2.05;;;25.70;69.40;;;;;;5103115;28;20035;-70
2022/07/11 06:09:12;;;;;;;6.95;3.53;;;25.50;69.20;;;;;;5071127;28;20127;-71
2022/07/11 06:11:41;;;;;;;9.88;3.85;;;25.10;68.90;;;;;;5092445;28;20043;-70
2022/07/11 06:14:09;;;;;;;7.32;3.05;;;24.60;70.30;;;;;;5094264;28;20032;-71
2022/07/11 06:16:36;;;;;;;5.15;2.67;;;24.20;71.20;;;;;;5094271;28;20453;-70
2022/07/11 06:19:04;;;;;;;3.75;1.70;;;24.10;70.90;;;;;;5094204;28;20075;-71
2022/07/11 06:21:31;;;;;;;6.43;1.95;;;23.90;71.30;;;;;;5065858;28;20131;-72
2022/07/11 06:23:59;;;;;;;6.47;3.33;;;23.90;72.00;;;;;;5095954;28;20036;-70
2022/07/11 06:26:26;;;;;;;5.32;2.90;;;23.90;71.90;;;;;;5086713;28;20048;-70
2022/07/11 06:28:55;;;;;;;7.28;3.50;;;23.60;71.90;;;;;;5100630;28;20537;-71
2022/07/11 06:31:22;;;;;;;6.85;2.40;;;23.80;72.50;;;;;;5095790;28;20040;-71
2022/07/11 06:33:54;;;;;;;9.75;3.33;;;23.80;71.50;;;;;;5095190;28;20044;-71
2022/07/11 06:36:22;;;;;;;3.00;1.55;;;23.80;71.60;;;;;;5083115;28;20406;-71
2022/07/11 06:38:50;;;;;;;6.22;2.17;;;23.90;71.90;;;;;;5074467;28;20045;-70
2022/07/11 06:41:17;;;;;;;4.32;1.77;;;24.00;71.20;;;;;;5056762;28;20526;-73
2022/07/11 06:43:47;;;;;;;4.20;1.80;;;24.00;70.90;;;;;;5076085;28;20097;-72
2022/07/11 06:46:16;;;;;;;6.95;2.50;;;24.10;71.00;;;;;;5084619;28;20060;-72
2022/07/11 06:48:45;;;;;;;6.68;2.90;;;23.80;70.10;;;;;;5073495;28;20047;-72
2022/07/11 06:51:12;;;;;;;5.18;1.98;;;23.80;70.00;;;;;;5073455;28;20048;-73
2022/07/11 06:53:39;;;;;;;9.52;3.75;;;23.40;71.60;;;;;;5073287;28;20090;-73
2022/07/11 06:56:07;;;;;;;4.85;1.77;;;23.20;71.30;;;;;;5075282;28;20056;-72
2022/07/11 06:58:34;;;;;;;4.40;1.40;;;23.10;70.60;;;;;;5080124;28;20516;-72
2022/07/11 07:01:02;;;;;;;7.50;2.58;;;23.20;70.10;;;;;;5088020;28;20549;-74
2022/07/11 07:03:32;;;;;;;4.43;1.58;;;23.20;69.90;;;;;;5084724;28;20040;-74
2022/07/11 07:06:00;;;;;;;7.70;3.08;;;23.00;70.00;;;;;;5093630;28;20054;-73
2022/07/11 07:08:28;;;;;;;7.93;2.45;;;23.10;69.80;;;;;;5074635;28;20363;-73
2022/07/11 07:10:58;;;;;;;4.10;1.90;;;23.20;69.40;;;;;;5093716;28;20486;-73
2022/07/11 07:13:25;;;;;;;8.85;2.47;;;22.80;70.60;;;;;;5087711;28;20080;-73
2022/07/11 07:15:53;;;;;;;5.03;2.65;;;22.80;70.60;;;;;;5087013;28;20398;-72
2022/07/11 07:18:20;;;;;;;3.97;1.58;;;22.80;70.80;;;;;;5089285;28;20045;-73
2022/07/11 07:20:49;;;;;;;5.95;1.45;;;22.40;71.00;;;;;;5084384;28;20044;-73
2022/07/11 07:23:16;;;;;;;4.97;1.85;;;22.30;72.00;;;;;;5060312;28;20452;-72
2022/07/11 07:25:44;;;;;;;4.00;1.20;;;22.70;71.50;;;;;;5077176;28;20052;-73
2022/07/11 07:28:12;;;;;;;6.45;1.63;;;22.80;71.10;;;;;;5072747;28;20048;-73
2022/07/11 07:30:39;;;;;;;5.32;2.78;;;23.00;71.90;;;;;;5086272;28;20202;-72
2022/07/11 07:33:06;;;;;;;5.60;2.22;;;23.30;71.70;;;;;;5075108;28;20075;-72
2022/07/11 07:35:33;;;;;;;5.18;2.35;;;23.50;71.40;;;;;;5085059;28;20093;-72
2022/07/11 07:38:02;;;;;;;5.35;1.90;;;23.30;70.50;;;;;;5064543;28;20048;-73
2022/07/11 07:40:29;;;;;;;5.72;1.83;;;23.10;71.00;;;;;;5085936;28;20056;-72
2022/07/11 07:42:57;;;;;;;5.93;2.30;;;23.00;70.80;;;;;;5089513;28;20043;-73
2022/07/11 07:45:24;;;;;;;6.40;2.20;;;22.70;70.90;;;;;;5093315;28;20055;-73
2022/07/11 07:47:52;;;;;;;4.63;1.92;;;22.70;71.60;;;;;;5078273;28;20053;-73
2022/07/11 07:50:19;;;;;;;7.10;3.67;;;22.80;71.40;;;;;;5057230;28;20541;-74
2022/07/11 07:52:46;;;;;;;9.77;4.70;;;23.10;71.80;;;;;;5092395;28;20131;-73
2022/07/11 07:55:15;;;;;;;6.00;3.35;;;23.50;70.20;;;;;;5072792;28;20127;-73
2022/07/11 07:57:42;;;;;;;5.32;2.20;;;23.90;68.70;;;;;;5073045;28;20060;-71
2022/07/11 08:02:55;;;;;;;6.87;2.10;;;23.90;68.00;;;;;;5082752;28;20054;-71
2022/07/11 08:05:22;;;;;;;6.70;1.75;;;23.70;66.90;;;;;;5085091;28;20054;-72
2022/07/11 08:07:49;;;;;;;5.30;1.60;;;23.40;67.00;;;;;;5093172;28;20130;-72
2022/07/11 08:10:18;;;;;;;4.03;2.10;;;23.10;66.70;;;;;;5088044;28;20074;-73
2022/07/11 08:12:45;;;;;;;4.90;2.50;;;23.30;67.30;;;;;;5083932;28;20059;-72
2022/07/11 08:15:13;;;;;;;6.68;2.63;;;23.90;67.00;;;;;;5092629;28;20044;-73
2022/07/11 08:17:41;;;;;;;6.10;3.60;;;24.40;67.00;;;;;;5092877;28;20064;-73
2022/07/11 08:20:09;;;;;;;5.95;1.10;;;24.80;65.10;;;;;;5092779;28;20514;-72
2022/07/11 08:22:37;;;;;;;4.00;1.45;;;24.40;60.90;;;;;;5092776;28;20075;-72
2022/07/11 08:25:05;;;;;;;7.47;3.50;;;23.90;61.60;;;;;;5094557;28;20040;-72
2022/07/11 08:27:33;;;;;;;5.85;1.60;;;23.20;63.00;;;;;;5092984;28;20044;-73
2022/07/11 08:30:03;;;;;;;5.55;2.47;;;23.30;64.20;;;;;;5074271;28;20445;-72
2022/07/11 08:32:30;;;;;;;4.88;2.03;;;23.50;65.30;;;;;;5092354;28;20121;-72
2022/07/11 08:34:57;;;;;;;5.30;1.80;;;23.90;64.50;;;;;;5092616;28;20040;-73
2022/07/11 08:37:24;;;;;;;3.63;1.63;;;24.20;61.30;;;;;;5092758;28;20109;-73
2022/07/11 08:39:52;;;;;;;3.78;1.48;;;24.30;59.20;;;;;;5094343;28;20047;-73
2022/07/11 08:42:20;;;;;;;4.68;1.35;;;24.50;58.00;;;;;;5096030;28;20507;-72
2022/07/11 08:44:49;;;;;;;4.20;1.33;;;24.50;58.20;;;;;;5095895;28;20035;-72
2022/07/11 08:47:16;;;;;;;3.72;1.33;;;24.40;58.50;;;;;;5096172;28;20040;-72
2022/07/11 08:49:45;;;;;;;7.05;1.60;;;24.30;58.90;;;;;;5096268;28;20120;-72
2022/07/11 08:52:16;;;;;;;4.20;1.90;;;24.10;59.40;;;;;;5096286;28;20040;-72
2022/07/11 08:54:43;;;;;;;8.00;4.60;;;23.90;60.30;;;;;;5096088;28;20442;-73
2022/07/11 08:57:11;;;;;;;4.25;1.95;;;23.70;61.20;;;;;;5096226;28;20079;-72
2022/07/11 08:59:41;;;;;;;6.15;1.60;;;23.30;62.00;;;;;;5095879;28;20566;-72
2022/07/11 09:02:10;;;;;;;6.30;2.60;;;23.10;62.90;;;;;;5077708;28;20469;-72
2022/07/11 09:04:38;;;;;;;4.57;1.35;;;23.40;62.90;;;;;;5095658;28;20109;-73
2022/07/11 09:07:05;;;;;;;2.83;1.08;;;23.40;61.60;;;;;;5095415;28;20078;-73
2022/07/11 09:09:33;;;;;;;3.38;1.25;;;23.40;60.60;;;;;;5095900;28;20048;-72
2022/07/11 09:12:00;;;;;;;4.47;0.95;;;23.50;60.70;;;;;;5095224;28;20491;-72
2022/07/11 09:14:29;;;;;;;2.13;0.90;;;23.30;59.30;;;;;;5095360;28;20043;-72
2022/07/11 09:16:58;;;;;;;3.33;1.00;;;22.40;58.10;;;;;;5095505;28;20044;-72
2022/07/11 09:19:28;;;;;;;2.63;0.75;;;22.20;59.60;;;;;;5077223;28;20128;-73
2022/07/11 09:27:46;;;;;;;6.30;1.92;;;21.80;64.70;;;;;;5095530;28;20555;-72
2022/07/11 09:30:25;;;;;;;3.65;1.90;;;22.30;65.00;;;;;;5095305;28;20051;-72
2022/07/11 09:32:54;;;;;;;4.80;1.33;;;22.70;64.60;;;;;;5094830;28;20137;-71
2022/07/11 09:35:23;;;;;;;3.67;1.70;;;22.70;64.30;;;;;;5095203;28;20113;-73
2022/07/11 09:37:50;;;;;;;6.82;2.70;;;22.70;64.50;;;;;;5095418;28;20063;-72
2022/07/11 09:42:50;;;;;;;3.30;1.40;;;23.30;62.90;;;;;;5071222;28;20056;-75
2022/07/11 09:45:19;;;;;;;8.35;4.93;;;23.30;61.20;;;;;;5058300;28;20049;-75
2022/07/11 09:47:47;;;;;;;8.50;4.05;;;23.50;61.30;;;;;;5057957;28;20052;-75
2022/07/11 09:50:18;;;;;;;4.43;1.88;;;23.80;60.60;;;;;;5054651;28;20065;-75
2022/07/11 09:53:05;;;;;;;5.63;2.00;;;24.00;60.70;;;;;;5052041;28;20046;-78
2022/07/11 09:55:32;;;;;;;;;;;24.20;57.60;;;;;;5038721;28;20045;-76
2022/07/11 09:57:59;;;;;;;4.00;1.25;;;24.00;57.90;;;;;;5055036;28;19905;-75
2022/07/11 10:00:27;;;;;;;1.92;0.70;;;23.90;58.50;;;;;;5038660;28;20021;-76
2022/07/11 10:02:56;;;;;;;3.30;1.10;;;23.30;58.50;;;;;;5038930;28;20042;-76
2022/07/11 10:05:23;;;;;;;4.20;0.85;;;22.90;59.80;;;;;;5038204;28;20072;-75
2022/07/11 10:07:50;;;;;;;3.03;0.80;;;23.00;61.00;;;;;;5039528;28;20033;-75
2022/07/11 10:10:19;;;;;;;2.40;1.20;;;22.70;62.20;;;;;;5035699;28;20045;-74
2022/07/11 10:12:47;;;;;;;5.85;1.65;;;22.80;62.50;;;;;;5022147;28;20073;-75
2022/07/11 10:15:17;;;;;;;5.35;2.67;;;23.00;62.90;;;;;;5017633;28;20114;-74
2022/07/11 10:17:53;;;;;;;3.33;1.30;;;23.20;62.50;;;;;;5017383;28;20056;-75
2022/07/11 10:20:27;;;;;;;4.25;1.40;;;22.90;62.70;;;;;;5017150;28;20073;-74
2022/07/11 10:22:59;;;;;;;4.93;1.50;;;22.80;64.10;;;;;;5037907;28;20042;-75
2022/07/11 10:25:36;;;;;;;4.32;1.42;;;23.10;64.00;;;;;;5024013;28;20096;-74
2022/07/11 10:28:22;;;;;;;5.82;2.15;;;23.50;63.20;;;;;;5020710;28;20073;-74
2022/07/11 10:30:51;;;;;;;6.43;2.40;;;23.90;63.00;;;;;;5023314;28;20049;-76
2022/07/11 10:33:19;;;;;;;5.47;1.45;;;24.20;61.20;;;;;;5018488;28;20064;-75
2022/07/11 10:35:49;;;;;;;3.85;1.15;;;24.40;59.80;;;;;;5020040;28;20050;-75
2022/07/11 10:38:18;;;;;;;5.18;1.50;;;24.20;59.60;;;;;;5026991;28;20046;-75
2022/07/11 10:40:50;;;;;;;6.75;2.75;;;24.50;59.40;;;;;;5016639;28;20129;-76
2022/07/11 10:43:38;;;;;;;5.63;2.45;;;24.60;58.50;;;;;;5017829;28;20050;-75
2022/07/11 10:46:08;;;;;;;6.18;3.35;;;24.60;58.70;;;;;;5023842;28;20065;-75
2022/07/11 10:48:52;;;;;;;4.40;2.60;;;24.70;58.50;;;;;;5033324;28;20046;-76
2022/07/11 10:51:25;;;;;;;3.90;2.15;;;24.70;58.10;;;;;;5018673;28;20095;-75
2022/07/11 10:53:54;;;;;;;4.35;1.48;;;24.50;59.50;;;;;;5022854;28;20056;-75
2022/07/11 10:56:43;;;;;;;3.65;1.30;;;24.20;59.50;;;;;;5017864;28;20041;-75
2022/07/11 10:59:15;;;;;;;6.05;2.30;;;23.90;59.70;;;;;;5016541;28;20416;-74
2022/07/11 11:02:14;;;;;;;7.10;3.17;;;23.80;60.50;;;;;;5015764;28;20113;-74
2022/07/11 11:04:57;;;;;;;8.13;3.72;;;24.10;61.00;;;;;;5016362;28;20125;-74
2022/07/11 11:07:33;;;;;;;5.70;2.85;;;24.20;60.80;;;;;;5016892;28;20103;-75
2022/07/11 11:10:02;;;;;;;4.35;1.85;;;24.20;60.80;;;;;;5037387;28;20517;-75
2022/07/11 11:13:09;;;;;;;4.00;1.35;;;23.90;61.60;;;;;;5024338;28;20053;-74
2022/07/11 11:15:41;;;;;;;4.20;1.58;;;23.90;60.30;;;;;;5000022;28;20066;-75
2022/07/11 11:18:36;;;;;;;3.88;1.30;;;24.20;58.00;;;;;;5031647;28;20394;-75
2022/07/11 11:21:24;;;;;;;3.70;1.20;;;24.30;59.30;;;;;;5012983;28;20085;-74
2022/07/11 11:24:09;;;;;;;5.07;1.10;;;23.60;60.00;;;;;;5016162;28;20041;-76
2022/07/11 11:26:46;;;;;;;4.03;1.38;;;23.70;61.30;;;;;;5017021;28;20066;-75
2022/07/11 11:29:22;;;;;;;3.83;0.82;;;23.90;59.90;;;;;;5015869;28;20057;-75
2022/07/11 11:31:53;;;;;;;6.00;2.28;;;23.90;57.20;;;;;;5020251;28;20437;-76
2022/07/11 11:34:20;;;;;;;5.28;1.80;;;23.90;58.00;;;;;;5020406;28;20116;-75
2022/07/11 11:36:57;;;;;;;4.25;1.15;;;24.20;57.90;;;;;;5014726;28;20054;-75
2022/07/11 11:39:27;;;;;;;2.97;1.33;;;24.10;58.20;;;;;;5015126;28;20447;-75
2022/07/11 11:41:55;;;;;;;2.50;1.30;;;24.10;58.20;;;;;;5015125;28;20062;-75
2022/07/11 11:44:22;;;;;;;3.72;1.67;;;24.10;58.40;;;;;;5031858;28;20050;-75
2022/07/11 11:46:53;;;;;;;7.05;2.28;;;24.20;58.80;;;;;;5030349;28;20046;-75
2022/07/11 11:49:20;;;;;;;31.33;22.95;;;24.40;58.60;;;;;;5013434;28;20497;-75
2022/07/11 11:51:49;;;;;;;5.25;1.58;;;24.30;58.10;;;;;;5017426;28;20046;-75
2022/07/11 11:54:23;;;;;;;5.32;1.20;;;24.40;58.40;;;;;;5033345;28;20046;-76
2022/07/11 11:56:50;;;;;;;8.73;5.93;;;24.40;58.30;;;;;;5017623;28;20042;-75
2022/07/11 11:59:18;;;;;;;5.45;2.13;;;24.40;59.20;;;;;;5015025;28;20069;-76
2022/07/11 12:01:47;;;;;;;15.20;9.82;;;24.30;58.50;;;;;;5015013;28;20100;-76
2022/07/11 12:04:16;;;;;;;9.10;4.85;;;24.10;59.30;;;;;;5020885;28;20103;-76
2022/07/11 12:06:46;;;;;;;4.10;1.55;;;24.10;59.20;;;;;;5014042;28;20100;-75
2022/07/11 12:09:15;;;;;;;6.30;1.40;;;23.90;57.80;;;;;;5032134;28;20547;-75
2022/07/11 12:11:44;;;;;;;6.55;3.55;;;23.80;58.00;;;;;;5015166;28;20052;-78
2022/07/11 12:14:15;;;;;;;5.68;1.35;;;24.00;58.20;;;;;;5039562;28;20045;-78
2022/07/11 12:16:46;;;;;;;5.65;1.50;;;24.20;58.20;;;;;;5025811;28;20037;-75
2022/07/11 12:19:17;;;;;;;7.95;3.05;;;23.90;58.50;;;;;;5019157;28;20145;-76
2022/07/11 12:21:49;;;;;;;5.45;1.63;;;24.00;59.80;;;;;;5020814;28;20128;-75
2022/07/11 12:24:19;;;;;;;7.05;2.40;;;24.10;59.10;;;;;;5019118;28;20096;-76
2022/07/11 12:26:48;;;;;;;10.07;4.80;;;23.90;59.40;;;;;;5032933;28;20053;-74
2022/07/11 12:29:19;;;;;;;8.07;2.35;;;23.90;60.40;;;;;;5043238;28;20061;-76
2022/07/11 12:31:48;;;;;;;6.22;2.22;;;23.90;60.10;;;;;;5034821;28;20067;-75
2022/07/11 12:34:18;;;;;;;4.50;1.35;;;23.90;59.70;;;;;;5022939;28;20056;-76
2022/07/11 12:36:47;;;;;;;6.25;2.05;;;24.00;59.00;;;;;;5027985;28;20049;-75
2022/07/11 12:39:25;;;;;;;5.38;3.17;;;24.10;59.20;;;;;;5023988;28;20048;-74
2022/07/11 12:41:53;;;;;;;6.97;3.05;;;24.20;58.70;;;;;;5026706;28;20058;-75
2022/07/11 12:47:26;;;;;;;4.15;1.50;;;24.30;58.40;;;;;;4996030;28;20141;-76
2022/07/11 12:49:55;;;;;;;4.97;1.60;;;24.50;57.50;;;;;;4973325;28;20049;-75
2022/07/11 12:52:22;;;;;;;6.05;3.40;;;24.60;57.40;;;;;;4991989;28;20148;-74
2022/07/11 12:54:52;;;;;;;8.05;4.25;;;25.00;57.00;;;;;;5028765;28;20030;-74
2022/07/11 12:57:22;;;;;;;6.60;4.03;;;25.20;56.70;;;;;;5027556;28;20049;-73
2022/07/11 12:59:50;;;;;;;5.63;3.10;;;25.40;55.90;;;;;;5039651;28;20128;-74
2022/07/11 13:02:20;;;;;;;7.22;1.80;;;25.60;56.70;;;;;;5039144;28;20049;-74
2022/07/11 13:04:49;;;;;;;3.45;1.55;;;25.40;55.90;;;;;;5039079;28;20049;-74
2022/07/11 13:10:14;;;;;;;4.93;1.33;;;25.10;56.10;;;;;;5023929;28;20040;-75